Aviation Digital Data Service (ADDS)

Output produced by METARs form (2201 UTC 24 March 2019)
found at http://www.aviationweather.gov/metar/data/
 
TAF SYCJ 241609Z 2418/2518 07012KT 9999 BKN020 SCT080 
     BECMG 2500/2502 04006KT 9999 FEW015
       
TAF SYKM 241100Z 2412/2423 07006KT 9999 SCT020 SCT040 
     TEMPO 2416/2422 6000 SHRA BKN0116
       
TAF SYLT 241100Z 2412/2423 06012KT 9999 BKN022 SCT045 
     PROB30 
     TEMPO 2416/2422 6000 SHRA BKN018